Flugplatz Buchel Airport

Bericht für ETSB

vom 30.09. um 19:20 UTC

Wind 7 kt aus 230°

Temperatur 9.0°C

Taupunkt 4.0°C

Luftfeuchtigkeit 71%

Luftdruck 1011 hPa

ETSB 301920Z AUTO 23007KT //// // ////// 09/04 Q1011 ///
Keine Prognose (TAF) verfügbar.
Impressum